Hood Army Air Field
KHLR : rendu visible

Aérodrome :











RETROUVEZ-NOUS SUR...

 
LOGIN :

S'inscrire | Disclaimer

   EN    FR    IT 

 









Légende :    VFR   VFR Marginal   IFR   IFR Intensif   IFR Très Intensif
Visi : 
Plafond : 
>= 8 km
>= 3000ft
5 à 8 km
1000 à 3000 ft
1500m à 5 km
500 à 1000 ft
800 à 1500m
200 à 500 ft
< 800m
< 200 ft
Symboles :   Orages  Brouillard  Fortes neiges  Fortes précipitations  Vent > 20 kt






- Altitude de l'aérodrome : 924 ft


KHLR - Hood Army Air Field

DERNIER METAR :
  • 231258Z AUTO 17006KT 10SM CLR 13/06 A3008 RMK AO2 SLP181 T01270058

METARs EXPIRÉS :
  • 231158Z AUTO 18004KT 10SM CLR 13/05 A3009 RMK AO2 SLP184 T01260053 10152 20126 55001
  • 231058Z AUTO 18006KT 10SM CLR 14/05 A3008 RMK AO2 SLP179 T01370052

TAF N/A



MET'MAP, la Météo Aéronautique d'un coup d'oeil ! - Copyright ORBIFLY Décembre 2007 - Disclaimer

ORBIFLY MET'MAP TEAM :

Programmation & Développement : Alexandra Zaïnal
Conception & Développement : Baudouin d'Aumeries
Co-Programmation & Développement : Marc-Olivier Méhu
Soutien technique & logistique : Manuel Goepfert

Contact : metmap@orbifly.com




SOURCES & CREDITS :

   NOAA       Earth
Advisory